Time;durP1;ratioP1;P1;durP2;ratioP2;P2;SDS_P1;SDS_P2;PMS_P1;PMS_P2;Temp;Humidity;BMP_temperature;BMP_pressure;BME280_temperature;BME280_humidity;BME280_pressure;Samples;Min_cycle;Max_cycle;Signal;HPM_P1;HPM_P2
2022/04/19 00:01:44;;;;;;;3.23;2.47;;;5.50;99.90;;;;;;10314837;28;20204;-78
2022/04/19 00:07:06;;;;;;;4.87;3.17;;;5.50;99.90;;;;;;10314375;28;20191;-79
2022/04/19 00:12:29;;;;;;;7.03;3.37;;;5.50;99.90;;;;;;10337135;28;20202;-79
2022/04/19 00:17:50;;;;;;;4.87;2.80;;;5.40;99.90;;;;;;10359349;28;20237;-79
2022/04/19 00:23:15;;;;;;;7.80;3.10;;;5.40;99.90;;;;;;10355999;28;20575;-78
2022/04/19 00:28:37;;;;;;;5.77;3.03;;;5.40;99.90;;;;;;10337916;28;20223;-78
2022/04/19 00:33:58;;;;;;;5.37;3.63;;;5.40;99.90;;;;;;10300215;28;20200;-78
2022/04/19 00:39:19;;;;;;;7.03;3.43;;;5.30;99.90;;;;;;10326951;28;20579;-79
2022/04/19 00:44:41;;;;;;;4.37;3.00;;;5.30;99.90;;;;;;10327054;28;20212;-78
2022/04/19 00:50:04;;;;;;;5.63;3.60;;;5.30;99.90;;;;;;10329461;28;20390;-78
2022/04/19 00:55:28;;;;;;;5.33;3.43;;;5.30;99.90;;;;;;10326629;28;20529;-78
2022/04/19 01:00:50;;;;;;;5.07;3.00;;;5.30;99.90;;;;;;10327124;28;20194;-78
2022/04/19 01:06:11;;;;;;;7.63;3.53;;;5.20;99.90;;;;;;10340303;28;20304;-78
2022/04/19 01:17:14;;;;;;;6.70;3.23;;;5.10;99.90;;;;;;10359646;28;20250;-78
2022/04/19 01:22:42;;;;;;;7.43;3.30;;;5.30;99.90;;;;;;10338447;28;20230;-79
2022/04/19 01:28:04;;;;;;;7.27;3.63;;;5.20;99.90;;;;;;10325289;28;20199;-78
2022/04/19 01:33:26;;;;;;;4.93;2.97;;;5.20;99.90;;;;;;10319200;28;20549;-79
2022/04/19 01:38:48;;;;;;;5.20;3.20;;;5.20;99.90;;;;;;10306028;28;20243;-78
2022/04/19 01:44:15;;;;;;;4.43;3.20;;;5.20;99.90;;;;;;10319471;28;20196;-78
2022/04/19 01:49:36;;;;;;;5.07;3.00;;;5.10;99.90;;;;;;10319070;28;20381;-78
2022/04/19 01:54:58;;;;;;;4.23;2.73;;;5.10;99.90;;;;;;10318528;28;20226;-78
2022/04/19 02:00:26;;;;;;;5.90;2.80;;;5.00;99.90;;;;;;10318686;28;20249;-78
2022/04/19 02:05:47;;;;;;;5.93;3.33;;;5.00;99.90;;;;;;10292645;28;20189;-79
2022/04/19 02:11:09;;;;;;;6.40;3.37;;;5.00;99.90;;;;;;10299779;28;20195;-79
2022/04/19 02:16:31;;;;;;;4.60;2.90;;;4.90;99.90;;;;;;10343575;28;20326;-79
2022/04/19 02:21:53;;;;;;;4.10;2.90;;;4.90;99.90;;;;;;10339130;28;20501;-78
2022/04/19 02:27:15;;;;;;;5.67;3.27;;;4.90;99.90;;;;;;10351527;28;20207;-79
2022/04/19 02:32:36;;;;;;;4.70;2.83;;;4.80;99.90;;;;;;10317691;28;20289;-79
2022/04/19 02:37:59;;;;;;;4.97;2.67;;;4.80;99.90;;;;;;10303283;28;20246;-79
2022/04/19 02:43:27;;;;;;;3.40;2.03;;;4.70;99.90;;;;;;10304459;28;20243;-78
2022/04/19 02:48:48;;;;;;;3.90;2.67;;;4.80;99.90;;;;;;10303095;28;20204;-78
2022/04/19 02:54:10;;;;;;;4.77;2.77;;;5.00;99.90;;;;;;10303406;28;20242;-79
2022/04/19 02:59:31;;;;;;;6.07;3.20;;;5.00;99.90;;;;;;10319203;28;20235;-78
2022/04/19 03:04:53;;;;;;;4.70;2.60;;;4.90;99.90;;;;;;10330413;28;20234;-78
2022/04/19 03:10:16;;;;;;;5.60;2.63;;;4.90;99.90;;;;;;10320073;28;20413;-78
2022/04/19 03:15:39;;;;;;;13.03;5.30;;;4.90;99.90;;;;;;10370186;28;20294;-78
2022/04/19 03:21:01;;;;;;;7.33;4.53;;;4.90;99.90;;;;;;10313782;28;20379;-79
2022/04/19 03:32:09;;;;;;;8.77;3.60;;;5.00;99.90;;;;;;10317986;28;20273;-79
2022/04/19 03:37:31;;;;;;;6.20;2.90;;;5.10;99.90;;;;;;10315164;28;20333;-79
2022/04/19 03:42:55;;;;;;;11.50;5.97;;;5.20;99.90;;;;;;10301534;28;20197;-79
2022/04/19 03:48:19;;;;;;;10.47;3.93;;;5.20;99.90;;;;;;10301391;28;20275;-78
2022/04/19 03:53:41;;;;;;;5.90;3.10;;;5.30;99.90;;;;;;10314107;28;20552;-78
2022/04/19 03:59:09;;;;;;;8.10;4.60;;;5.40;99.90;;;;;;10288183;28;20220;-78
2022/04/19 04:04:32;;;;;;;7.97;4.57;;;5.40;99.90;;;;;;10274930;28;20196;-77
2022/04/19 04:09:53;;;;;;;8.47;4.57;;;5.40;99.90;;;;;;10274564;28;20277;-79
2022/04/19 04:15:15;;;;;;;10.13;4.70;;;5.40;99.90;;;;;;10369499;28;20522;-79
2022/04/19 04:20:37;;;;;;;8.63;4.17;;;5.40;99.90;;;;;;10347851;28;20212;-78
2022/04/19 04:25:59;;;;;;;7.83;3.70;;;5.40;99.90;;;;;;10339836;28;20187;-79
2022/04/19 04:31:21;;;;;;;9.93;4.43;;;5.40;99.90;;;;;;10273582;29;20202;-78
2022/04/19 04:36:43;;;;;;;10.43;4.50;;;5.40;99.90;;;;;;10275990;28;20247;-78
2022/04/19 04:42:09;;;;;;;7.30;3.33;;;5.50;99.90;;;;;;10288625;28;20228;-78
2022/04/19 04:53:11;;;;;;;5.90;3.10;;;5.60;99.90;;;;;;10289250;28;20206;-79
2022/04/19 04:58:37;;;;;;;5.43;3.00;;;5.70;99.90;;;;;;10315529;28;20293;-78
2022/04/19 05:03:58;;;;;;;8.43;3.77;;;5.80;99.90;;;;;;10313573;28;20458;-79
2022/04/19 05:09:20;;;;;;;7.47;3.70;;;5.90;99.90;;;;;;10334393;28;20201;-79
2022/04/19 05:14:43;;;;;;;9.97;4.20;;;6.10;99.90;;;;;;10372954;28;20192;-79
2022/04/19 05:20:05;;;;;;;9.77;3.63;;;6.20;99.90;;;;;;10338853;28;20392;-80
2022/04/19 05:25:29;;;;;;;6.03;4.07;;;6.30;99.90;;;;;;10347775;28;20583;-78
2022/04/19 05:30:51;;;;;;;11.60;4.13;;;6.40;99.90;;;;;;10306258;28;20420;-79
2022/04/19 05:36:13;;;;;;;4.80;3.23;;;6.50;99.90;;;;;;10305777;28;20251;-79
2022/04/19 05:41:35;;;;;;;6.10;3.43;;;6.60;99.90;;;;;;10320212;28;20199;-78
2022/04/19 05:46:57;;;;;;;10.07;5.00;;;6.70;99.90;;;;;;10319305;28;20421;-78
2022/04/19 05:52:19;;;;;;;13.93;4.40;;;6.90;99.90;;;;;;10319959;28;20199;-78
2022/04/19 05:57:41;;;;;;;7.90;4.60;;;7.00;99.90;;;;;;10278284;28;20226;-78
2022/04/19 06:08:44;;;;;;;18.43;7.43;;;7.30;99.90;;;;;;10294216;28;20246;-80
2022/04/19 06:14:06;;;;;;;6.93;3.50;;;7.60;99.90;;;;;;10352854;28;20237;-79
2022/04/19 06:19:28;;;;;;;5.90;2.70;;;7.70;99.90;;;;;;10332144;28;20222;-79
2022/04/19 06:24:50;;;;;;;6.93;3.53;;;7.90;99.90;;;;;;10350951;28;20197;-79
2022/04/19 06:30:17;;;;;;;7.93;3.37;;;8.00;99.90;;;;;;10305372;28;20277;-78
2022/04/19 06:35:38;;;;;;;6.67;3.47;;;8.20;99.90;;;;;;10317555;28;20534;-79
2022/04/19 06:41:00;;;;;;;34.23;13.57;;;8.50;99.90;;;;;;10319262;28;20444;-79
2022/04/19 06:46:27;;;;;;;51.70;18.67;;;8.60;99.90;;;;;;10316951;28;20192;-79
2022/04/19 06:52:00;;;;;;;25.37;11.23;;;8.90;99.90;;;;;;10302896;28;20210;-78
2022/04/19 06:57:22;;;;;;;14.47;6.17;;;9.60;98.10;;;;;;10291372;28;20226;-79
2022/04/19 07:02:44;;;;;;;7.90;3.57;;;10.30;95.70;;;;;;10316418;28;20201;-79
2022/04/19 07:08:35;;;;;;;12.40;5.10;;;10.30;94.50;;;;;;10233326;29;20210;-78
2022/04/19 07:13:58;;;;;;;20.27;6.60;;;10.10;95.00;;;;;;10219912;29;20253;-79
2022/04/19 07:31:24;;;;;;;19.27;4.77;;;10.40;87.60;;;;;;10017623;29;20222;-81
2022/04/19 07:36:50;;;;;;;27.70;14.70;;;10.70;81.60;;;;;;10034632;29;20253;-78
2022/04/19 07:42:11;;;;;;;14.07;6.33;;;10.90;78.00;;;;;;10073776;29;20224;-77
2022/04/19 07:47:33;;;;;;;10.20;4.67;;;11.00;80.50;;;;;;10124076;29;20428;-79
2022/04/19 07:52:54;;;;;;;5.07;1.80;;;11.60;75.80;;;;;;10149519;29;20242;-78
2022/04/19 07:58:16;;;;;;;6.97;3.50;;;11.60;74.90;;;;;;10233847;28;20527;-78
2022/04/19 08:03:37;;;;;;;6.77;3.43;;;11.10;79.60;;;;;;10236831;28;20518;-79
2022/04/19 08:08:59;;;;;;;5.70;2.80;;;10.90;84.40;;;;;;10306849;28;20295;-79
2022/04/19 08:14:20;;;;;;;13.63;5.60;;;11.00;85.80;;;;;;10359659;28;20204;-80
2022/04/19 08:19:42;;;;;;;4.73;4.00;;;10.90;88.70;;;;;;10315828;28;20236;-78
2022/04/19 08:25:06;;;;;;;4.37;3.33;;;11.60;88.60;;;;;;10318947;28;20196;-79
2022/04/19 08:30:28;;;;;;;12.35;5.68;;;12.30;79.90;;;;;;10308466;28;20228;-81
2022/04/19 08:35:50;;;;;;;6.60;5.03;;;12.40;78.70;;;;;;10347155;28;20396;-79
2022/04/19 08:41:12;;;;;;;5.77;4.10;;;12.10;79.30;;;;;;10379016;28;20259;-81
2022/04/19 08:46:41;;;;;;;5.78;2.80;;;11.60;87.80;;;;;;10366830;28;20201;-80
2022/04/19 08:52:03;;;;;;;7.30;3.93;;;11.60;86.40;;;;;;10383875;28;20204;-79
2022/04/19 08:57:30;;;;;;;14.00;7.50;;;11.70;84.60;;;;;;10362962;28;20228;-79
2022/04/19 09:02:54;;;;;;;148.77;84.45;;;12.20;80.90;;;;;;10342524;28;20208;-82
2022/04/19 09:08:15;;;;;;;60.70;40.13;;;12.20;78.20;;;;;;10357191;28;20232;-82
2022/04/19 09:13:37;;;;;;;13.97;6.73;;;12.10;79.90;;;;;;10386598;28;20247;-78
2022/04/19 09:18:58;;;;;;;60.70;46.72;;;11.90;84.60;;;;;;10364243;28;20451;-83
2022/04/19 09:24:22;;;;;;;36.03;18.93;;;12.10;85.00;;;;;;10356344;28;20221;-80
2022/04/19 09:29:43;;;;;;;5.53;3.17;;;12.20;86.50;;;;;;10355604;28;20195;-79
2022/04/19 09:35:05;;;;;;;5.27;4.43;;;12.20;84.20;;;;;;10325682;28;20244;-80
2022/04/19 09:40:31;;;;;;;40.10;29.77;;;12.20;83.00;;;;;;10340670;28;20264;-78
2022/04/19 09:45:58;;;;;;;15.70;7.55;;;12.20;83.00;;;;;;10354709;28;20205;-83
2022/04/19 09:51:30;;;;;;;13.93;9.15;;;12.20;82.00;;;;;;10355898;28;20194;-82
2022/04/19 09:56:53;;;;;;;33.78;20.50;;;12.20;82.30;;;;;;10296844;28;20280;-82
2022/04/19 10:08:11;;;;;;;8.07;2.80;;;11.80;87.40;;;;;;10313687;28;20203;-81
2022/04/19 10:13:36;;;;;;;7.65;3.78;;;12.00;88.70;;;;;;10367542;28;20240;-77
2022/04/19 10:18:59;;;;;;;10.43;5.70;;;12.10;90.00;;;;;;10360206;28;20226;-81
2022/04/19 10:24:21;;;;;;;4.93;2.85;;;12.50;85.70;;;;;;10354058;28;20236;-79
2022/04/19 10:29:44;;;;;;;7.97;4.13;;;12.40;85.00;;;;;;10338986;28;20202;-80
2022/04/19 10:35:06;;;;;;;6.25;2.90;;;13.00;80.90;;;;;;10338825;28;20239;-82
2022/04/19 10:40:49;;;;;;;4.88;3.30;;;13.20;75.00;;;;;;10354225;28;20228;-80
2022/04/19 10:46:22;;;;;;;13.98;6.18;;;13.00;72.40;;;;;;10352404;28;20214;-78
2022/04/19 10:51:43;;;;;;;4.97;3.22;;;13.10;74.70;;;;;;10356051;28;20196;-78
2022/04/19 11:03:00;;;;;;;11.38;5.15;;;13.60;68.60;;;;;;10352465;28;20382;-80
2022/04/19 11:08:21;;;;;;;24.58;10.02;;;14.40;57.60;;;;;;10337897;28;20536;-82
2022/04/19 11:13:43;;;;;;;11.00;6.20;;;14.40;55.10;;;;;;10381266;28;20211;-81
2022/04/19 11:19:18;;;;;;;6.88;3.35;;;14.70;49.70;;;;;;10357728;28;20267;-81
2022/04/19 11:25:01;;;;;;;7.05;2.90;;;14.90;46.10;;;;;;10351955;28;20235;-79
2022/04/19 11:30:24;;;;;;;3.05;2.03;;;16.00;39.90;;;;;;10320451;28;20215;-79
2022/04/19 11:36:00;;;;;;;6.15;2.72;;;16.30;32.60;;;;;;10322705;28;20251;-80
2022/04/19 11:47:03;;;;;;;11.77;5.40;;;16.30;30.90;;;;;;10350392;28;20546;-79
2022/04/19 11:52:26;;;;;;;9.82;5.95;;;15.80;32.10;;;;;;10349531;28;20206;-82
2022/04/19 11:57:48;;;;;;;6.25;3.90;;;15.10;33.70;;;;;;10331096;28;20242;-82
2022/04/19 12:03:27;;;;;;;6.85;4.50;;;14.70;35.10;;;;;;10321615;28;20527;-84
2022/04/19 12:08:53;;;;;;;5.70;4.65;;;14.40;38.70;;;;;;10349038;28;20219;-82
2022/04/19 12:14:30;;;;;;;5.43;3.17;;;14.50;41.90;;;;;;10383636;28;20194;-79
2022/04/19 12:20:03;;;;;;;9.13;4.43;;;15.00;41.70;;;;;;10348950;28;20225;-80
2022/04/19 12:25:25;;;;;;;3.97;2.75;;;15.70;38.30;;;;;;10335469;28;20200;-79
2022/04/19 12:30:47;;;;;;;5.05;3.53;;;15.30;35.60;;;;;;10348731;28;20195;-79
2022/04/19 12:36:12;;;;;;;2.83;2.20;;;15.60;35.20;;;;;;10349909;28;20287;-79
2022/04/19 12:41:43;;;;;;;8.63;4.53;;;15.40;34.70;;;;;;10349920;28;20394;-78
2022/04/19 12:47:12;;;;;;;5.93;4.00;;;15.10;35.30;;;;;;10335454;28;20201;-79
2022/04/19 12:52:34;;;;;;;8.60;4.95;;;15.00;33.80;;;;;;10349424;28;20200;-81
2022/04/19 12:58:26;;;;;;;6.35;3.80;;;15.10;34.70;;;;;;10348773;28;20223;-82
2022/04/19 13:03:48;;;;;;;10.23;6.10;;;15.30;34.30;;;;;;10348840;28;20520;-79
2022/04/19 13:14:58;;;;;;;7.47;4.15;;;15.40;31.90;;;;;;10388605;28;20203;-84
2022/04/19 13:20:20;;;;;;;10.07;5.30;;;15.00;34.20;;;;;;10348917;28;20434;-82
2022/04/19 13:25:43;;;;;;;19.25;9.15;;;14.60;35.10;;;;;;10342640;28;20575;-77
2022/04/19 13:31:05;;;;;;;7.20;4.53;;;14.90;36.40;;;;;;10327634;28;20205;-76
2022/04/19 13:36:27;;;;;;;6.15;2.53;;;15.10;35.20;;;;;;10354058;28;20256;-80
2022/04/19 13:41:49;;;;;;;4.80;3.40;;;15.00;34.90;;;;;;10355221;28;20200;-80
2022/04/19 13:47:10;;;;;;;7.10;2.85;;;14.80;36.70;;;;;;10359407;28;20228;-82
2022/04/19 13:52:34;;;;;;;8.82;3.65;;;14.50;39.30;;;;;;10341878;28;20219;-84
2022/04/19 13:57:55;;;;;;;10.23;6.10;;;14.10;40.90;;;;;;10353624;28;20425;-81
2022/04/19 14:03:17;;;;;;;7.22;4.75;;;13.80;42.40;;;;;;10355325;28;20193;-81
2022/04/19 14:08:39;;;;;;;13.02;5.50;;;13.80;45.40;;;;;;10353275;28;20258;-81
2022/04/19 14:14:03;;;;;;;13.07;6.30;;;13.90;46.50;;;;;;10388278;28;20226;-81
2022/04/19 14:19:24;;;;;;;10.48;5.95;;;13.70;47.60;;;;;;10356582;28;20262;-80
2022/04/19 14:24:46;;;;;;;10.27;5.88;;;13.60;52.10;;;;;;10353070;28;20232;-82
2022/04/19 14:35:50;;;;;;;23.73;8.32;;;13.30;62.50;;;;;;10321024;28;20472;-82
2022/04/19 14:41:12;;;;;;;7.55;4.43;;;13.20;67.20;;;;;;10297668;28;20562;-77
2022/04/19 14:46:33;;;;;;;14.07;7.00;;;13.00;73.60;;;;;;10312619;28;20205;-82
2022/04/19 14:57:38;;;;;;;6.30;3.47;;;12.50;83.40;;;;;;10314003;28;20231;-82
2022/04/19 15:02:59;;;;;;;5.60;3.13;;;12.20;87.30;;;;;;10338877;28;20578;-80
2022/04/19 15:08:21;;;;;;;18.35;6.40;;;12.20;90.50;;;;;;10354633;28;20491;-84
2022/04/19 15:13:45;;;;;;;11.80;5.30;;;12.40;91.60;;;;;;10358490;28;20191;-85
2022/04/19 15:19:06;;;;;;;10.63;4.78;;;12.50;91.50;;;;;;10369754;28;20221;-78
2022/04/19 15:24:28;;;;;;;5.68;4.38;;;12.30;92.20;;;;;;10361018;28;20444;-77
2022/04/19 15:29:49;;;;;;;8.63;4.72;;;12.10;93.00;;;;;;10355921;28;20435;-79
2022/04/19 15:35:12;;;;;;;15.87;6.70;;;11.90;94.20;;;;;;10355003;28;20271;-79
2022/04/19 15:40:35;;;;;;;10.87;5.70;;;12.00;94.80;;;;;;10354845;28;20229;-79
2022/04/19 15:45:57;;;;;;;8.93;6.00;;;12.00;94.60;;;;;;10342405;28;20197;-79
2022/04/19 15:51:18;;;;;;;10.03;5.83;;;11.80;95.40;;;;;;10341692;28;20205;-79
2022/04/19 15:56:39;;;;;;;8.40;5.57;;;11.60;96.30;;;;;;10356023;28;20205;-79
2022/04/19 16:02:01;;;;;;;7.13;4.77;;;11.50;96.40;;;;;;10351945;28;20199;-79
2022/04/19 16:07:22;;;;;;;6.13;4.43;;;11.30;97.00;;;;;;10379422;28;20201;-79
2022/04/19 16:12:47;;;;;;;6.27;4.67;;;11.20;97.70;;;;;;10391315;28;20242;-79
2022/04/19 16:23:49;;;;;;;10.00;7.23;;;11.10;98.10;;;;;;10367578;28;20189;-79
2022/04/19 16:29:11;;;;;;;11.67;8.30;;;11.20;98.50;;;;;;10366602;28;20205;-79
2022/04/19 16:34:33;;;;;;;11.53;6.07;;;11.10;98.90;;;;;;10338101;28;20192;-80
2022/04/19 16:39:55;;;;;;;9.43;6.53;;;11.00;99.30;;;;;;10340479;28;20219;-81
2022/04/19 16:45:16;;;;;;;10.47;6.60;;;10.90;99.30;;;;;;10327115;28;20200;-79
2022/04/19 16:50:39;;;;;;;13.77;6.23;;;10.70;99.90;;;;;;10354571;28;20319;-78
2022/04/19 16:56:00;;;;;;;9.07;6.13;;;10.60;99.90;;;;;;10353440;28;20227;-79
2022/04/19 17:01:22;;;;;;;7.07;5.03;;;10.50;99.90;;;;;;10359770;28;20605;-79
2022/04/19 17:06:47;;;;;;;7.40;4.53;;;10.40;99.90;;;;;;10362064;28;20201;-79
2022/04/19 17:12:09;;;;;;;6.23;4.67;;;10.20;99.90;;;;;;10365851;28;20251;-79
2022/04/19 17:17:30;;;;;;;8.70;6.10;;;10.10;99.90;;;;;;10383191;28;20224;-79
2022/04/19 17:22:52;;;;;;;8.67;5.87;;;9.90;99.90;;;;;;10330792;28;20196;-79
2022/04/19 17:28:13;;;;;;;10.87;6.03;;;9.80;99.90;;;;;;10361825;28;20520;-79
2022/04/19 17:33:38;;;;;;;10.70;5.90;;;9.80;99.90;;;;;;10347731;28;20389;-79
2022/04/19 17:39:00;;;;;;;6.80;4.87;;;9.70;99.90;;;;;;10361329;28;20313;-79
2022/04/19 17:44:22;;;;;;;13.37;7.20;;;9.60;99.90;;;;;;10361657;28;20192;-78
2022/04/19 18:01:02;;;;;;;10.40;7.23;;;9.50;99.90;;;;;;10358943;28;20290;-79
2022/04/19 18:06:25;;;;;;;29.07;15.33;;;9.50;99.90;;;;;;10360272;28;20239;-78
2022/04/19 18:11:46;;;;;;;33.80;16.87;;;9.50;99.90;;;;;;10372944;28;20206;-79
2022/04/19 18:17:08;;;;;;;59.83;29.67;;;9.50;99.90;;;;;;10362212;28;20223;-79
2022/04/19 18:28:09;;;;;;;29.13;19.23;;;9.40;99.90;;;;;;10359288;28;20199;-79
2022/04/19 18:33:31;;;;;;;33.37;20.20;;;9.40;99.90;;;;;;10344441;28;20198;-80
2022/04/19 18:38:52;;;;;;;52.57;29.10;;;9.40;99.90;;;;;;10327529;28;20475;-78
2022/04/19 18:44:14;;;;;;;51.00;28.27;;;9.30;99.90;;;;;;10358371;28;20218;-78
2022/04/19 18:49:35;;;;;;;48.50;23.93;;;9.30;99.90;;;;;;10358484;28;20497;-78
2022/04/19 18:54:56;;;;;;;27.37;13.80;;;9.20;99.90;;;;;;10358205;28;20207;-78
2022/04/19 19:00:18;;;;;;;76.43;28.13;;;9.20;99.90;;;;;;10340227;28;20430;-78
2022/04/19 19:05:41;;;;;;;54.50;22.23;;;9.20;99.90;;;;;;10382169;28;20257;-77
2022/04/19 19:11:03;;;;;;;63.50;29.10;;;9.30;99.90;;;;;;10383195;28;20199;-78
2022/04/19 19:16:25;;;;;;;55.97;26.27;;;9.30;99.90;;;;;;10371523;28;20218;-78
2022/04/19 19:21:47;;;;;;;29.03;14.77;;;9.40;99.90;;;;;;10316052;28;20250;-78
2022/04/19 19:27:09;;;;;;;18.23;9.80;;;9.40;99.90;;;;;;10355587;28;20224;-78
2022/04/19 19:32:30;;;;;;;14.20;8.93;;;9.50;99.90;;;;;;10328779;28;20268;-78
2022/04/19 19:37:52;;;;;;;20.53;11.03;;;9.40;99.90;;;;;;10301471;28;20253;-78
2022/04/19 19:43:13;;;;;;;16.50;9.40;;;9.40;99.90;;;;;;10331182;28;20208;-77
2022/04/19 19:48:34;;;;;;;16.30;10.70;;;9.40;99.90;;;;;;10301149;28;20200;-78
2022/04/19 19:53:56;;;;;;;21.70;10.73;;;9.40;99.90;;;;;;10306939;28;20264;-78
2022/04/19 19:59:17;;;;;;;20.87;12.30;;;9.50;99.90;;;;;;10315755;28;20224;-77
2022/04/19 20:04:39;;;;;;;17.40;10.97;;;9.60;99.90;;;;;;10300604;28;20203;-78
2022/04/19 20:10:00;;;;;;;17.70;11.30;;;9.60;99.90;;;;;;10276393;28;20205;-77
2022/04/19 20:15:23;;;;;;;21.97;12.73;;;9.60;99.90;;;;;;10316097;28;20272;-77
2022/04/19 20:20:47;;;;;;;27.93;15.43;;;9.50;99.90;;;;;;10277046;28;20398;-78
2022/04/19 20:26:08;;;;;;;29.73;14.13;;;9.60;99.90;;;;;;10300131;28;20205;-79
2022/04/19 20:31:31;;;;;;;36.67;18.47;;;9.70;99.90;;;;;;10300263;28;20205;-77
2022/04/19 20:36:53;;;;;;;33.03;19.03;;;9.60;99.90;;;;;;10324099;28;20310;-77
2022/04/19 20:42:15;;;;;;;43.33;20.57;;;9.60;99.90;;;;;;10348242;28;20546;-78
2022/04/19 20:53:16;;;;;;;34.83;19.13;;;9.50;99.90;;;;;;10362118;28;20197;-79
2022/04/19 20:58:37;;;;;;;31.57;16.13;;;9.40;99.90;;;;;;10347958;28;20243;-78
2022/04/19 21:03:58;;;;;;;28.17;14.37;;;9.50;99.90;;;;;;10387723;28;20515;-79
2022/04/19 21:09:20;;;;;;;23.73;11.07;;;9.50;99.90;;;;;;10371493;28;20223;-79
2022/04/19 21:14:41;;;;;;;21.53;11.13;;;9.40;99.90;;;;;;10405638;28;20399;-79
2022/04/19 21:20:06;;;;;;;31.13;15.13;;;9.40;99.90;;;;;;10329020;28;20241;-79
2022/04/19 21:25:27;;;;;;;27.77;15.40;;;9.40;99.90;;;;;;10361547;28;20197;-79
2022/04/19 21:30:50;;;;;;;81.23;48.83;;;9.40;99.90;;;;;;10360522;28;20202;-79
2022/04/19 21:36:11;;;;;;;47.97;27.20;;;9.40;99.90;;;;;;10346516;28;20428;-80
2022/04/19 21:41:33;;;;;;;28.70;14.40;;;9.30;99.90;;;;;;10359812;28;20258;-80
2022/04/19 21:46:55;;;;;;;19.23;10.47;;;9.30;99.90;;;;;;10358304;28;20200;-80
2022/04/19 21:52:16;;;;;;;25.83;12.33;;;9.20;99.90;;;;;;10359196;28;20222;-79
2022/04/19 21:57:39;;;;;;;49.27;16.37;;;9.20;99.90;;;;;;10346054;28;20243;-79
2022/04/19 22:03:01;;;;;;;52.67;16.87;;;9.20;99.90;;;;;;10346779;28;20461;-79
2022/04/19 22:08:22;;;;;;;51.73;18.20;;;9.20;99.90;;;;;;10385927;28;20196;-80
2022/04/19 22:13:44;;;;;;;50.83;19.00;;;9.20;99.90;;;;;;10399548;28;20253;-79
2022/04/19 22:19:06;;;;;;;62.73;20.37;;;9.20;99.90;;;;;;10359583;28;20237;-79
2022/04/19 22:24:28;;;;;;;59.70;21.07;;;9.10;99.90;;;;;;10344757;28;20197;-79
2022/04/19 22:29:52;;;;;;;50.03;17.83;;;9.10;99.90;;;;;;10359239;28;20478;-79
2022/04/19 22:35:14;;;;;;;37.67;14.50;;;9.10;99.90;;;;;;10344163;28;20416;-79
2022/04/19 22:40:36;;;;;;;22.80;10.77;;;9.10;99.90;;;;;;10344542;28;20263;-80
2022/04/19 22:45:57;;;;;;;20.03;10.10;;;9.00;99.90;;;;;;10330692;28;20196;-79
2022/04/19 22:51:19;;;;;;;18.17;8.23;;;9.00;99.90;;;;;;10329792;28;20551;-79
2022/04/19 22:56:41;;;;;;;12.37;6.80;;;9.10;99.90;;;;;;10357194;28;20246;-79
2022/04/19 23:02:03;;;;;;;11.50;6.70;;;9.00;99.90;;;;;;10352256;28;20394;-79
2022/04/19 23:07:25;;;;;;;13.37;8.17;;;8.90;99.90;;;;;;10397206;28;20199;-79
2022/04/19 23:12:46;;;;;;;10.80;6.83;;;8.80;99.90;;;;;;10383229;28;20198;-78
2022/04/19 23:18:08;;;;;;;13.50;6.10;;;8.90;99.90;;;;;;10366601;28;20512;-79
2022/04/19 23:23:29;;;;;;;9.40;5.47;;;8.80;99.90;;;;;;10352026;28;20295;-78
2022/04/19 23:28:51;;;;;;;11.57;5.77;;;8.70;99.90;;;;;;10357095;28;20207;-78
2022/04/19 23:34:13;;;;;;;7.90;5.30;;;8.70;99.90;;;;;;10342432;28;20196;-79
2022/04/19 23:39:35;;;;;;;7.03;4.77;;;8.70;99.90;;;;;;10357300;28;20227;-79
2022/04/19 23:44:56;;;;;;;9.63;5.53;;;8.70;99.90;;;;;;10341461;28;20199;-79
2022/04/19 23:50:18;;;;;;;7.67;4.70;;;8.70;99.90;;;;;;10354774;28;20198;-79
2022/04/19 23:55:40;;;;;;;10.47;4.27;;;8.70;99.90;;;;;;10354748;28;20224;-79
